To NAV CANADA Home Page Login to a new session Search on AWWS site Disclaimer Vers la page française équivalente Tips FAQ What's new on the site To the Forecasts and Observations / NOTAM section To "File a Flight Plan" website Publications and other links Update of the User's profile FIC Telephone Numbers My Weather Data Folder Route Weather Data Regional Weather Data Local Weather Data To the Forecasts and Observations / NOTAM section
Request Generated 11/16/2018 at 01:54:06 UTC . Weather information available at that time is displayed.

METAR/TAF

HAY RIVER/MERLYN CARTER AIRPORT/NT    

METAR CYHY 160100Z 24004KT 15SM -SN BKN020 M16/M18 A3049 RMK SC7 VRY LGT PCPN SLP347=
METAR CYHY 160000Z 23004KT 15SM -SN BKN020 BKN230 M16/M18 A3048 RMK SC7CI1 CI TR VRY LGT PCPN SLP343=
METAR CYHY 152300Z 30002KT 14SM -SN BKN020 OVC210 M16/M18 A3048 RMK SC7CI1 SLP343=

TAF CYHY 152338Z 1600/1612 VRB03KT P6SM SCT020 BKN080 TEMPO 1600/1606
P6SM -SN BKN020
FM160600 VRB03KT P6SM SCT060 BKN100
RMK NXT FCST BY 160600Z=
Your time UTC time
Weather data provided by Environment Canada and NAV CANADA